Time;durP1;ratioP1;P1;durP2;ratioP2;P2;SDS_P1;SDS_P2;PMS_P1;PMS_P2;Temp;Humidity;BMP_temperature;BMP_pressure;BME280_temperature;BME280_humidity;BME280_pressure;Samples;Min_cycle;Max_cycle;Signal;HPM_P1;HPM_P2
2022/12/09 00:01:13;;;;;;;70.50;52.85;;;13.10;60.30;;;;;;5052095;27;90697;-50
2022/12/09 00:03:39;;;;;;;73.32;53.42;;;13.20;60.30;;;;;;5022332;27;90952;-51
2022/12/09 00:06:09;;;;;;;74.30;54.17;;;13.20;60.30;;;;;;5017681;27;90041;-50
2022/12/09 00:08:35;;;;;;;72.07;53.50;;;13.10;60.30;;;;;;5035117;27;90639;-49
2022/12/09 00:11:01;;;;;;;74.10;54.42;;;13.10;60.20;;;;;;4998393;27;93648;-49
2022/12/09 00:13:27;;;;;;;72.32;53.67;;;13.10;60.20;;;;;;5039062;27;90230;-49
2022/12/09 00:15:53;;;;;;;74.35;53.25;;;13.00;60.30;;;;;;5042595;27;93902;-50
2022/12/09 00:18:18;;;;;;;72.18;53.28;;;13.10;60.30;;;;;;5034503;27;90061;-52
2022/12/09 00:20:44;;;;;;;73.60;53.47;;;13.10;60.20;;;;;;5035366;27;91838;-50
2022/12/09 00:23:09;;;;;;;71.78;53.20;;;13.10;60.20;;;;;;5039960;27;90671;-52
2022/12/09 00:25:35;;;;;;;76.38;53.40;;;13.10;60.20;;;;;;5043010;27;89789;-50
2022/12/09 00:28:01;;;;;;;72.18;53.05;;;13.00;60.10;;;;;;5028739;27;92611;-51
2022/12/09 00:30:26;;;;;;;71.20;53.13;;;13.10;60.20;;;;;;5037475;27;92602;-52
2022/12/09 00:32:52;;;;;;;71.68;53.35;;;13.00;60.20;;;;;;5033829;27;94942;-50
2022/12/09 00:35:18;;;;;;;74.00;53.83;;;13.00;60.10;;;;;;5036978;27;89958;-53
2022/12/09 00:37:43;;;;;;;71.50;53.17;;;13.00;60.20;;;;;;5043417;27;93228;-51
2022/12/09 00:40:09;;;;;;;71.72;53.63;;;13.00;60.20;;;;;;5036823;27;97102;-55
2022/12/09 00:42:35;;;;;;;72.18;53.17;;;12.90;60.30;;;;;;5042468;27;90449;-52
2022/12/09 00:45:01;;;;;;;72.82;53.50;;;12.90;60.30;;;;;;5033240;27;93125;-51
2022/12/09 00:47:26;;;;;;;72.35;54.03;;;12.90;60.30;;;;;;5036031;27;90482;-49
2022/12/09 00:49:52;;;;;;;73.47;54.08;;;12.90;60.30;;;;;;5044725;27;92124;-50
2022/12/09 00:52:17;;;;;;;72.53;53.35;;;12.90;60.10;;;;;;5027661;27;95400;-53
2022/12/09 00:54:43;;;;;;;72.63;53.55;;;12.90;60.20;;;;;;5041234;27;90570;-51
2022/12/09 00:57:09;;;;;;;69.00;52.78;;;12.90;60.10;;;;;;5051735;27;90226;-53
2022/12/09 00:59:34;;;;;;;72.20;54.17;;;12.90;60.20;;;;;;5039638;27;92625;-53
2022/12/09 01:02:00;;;;;;;71.03;53.65;;;12.90;60.10;;;;;;5026026;27;91572;-52
2022/12/09 01:04:26;;;;;;;73.25;53.05;;;12.90;60.10;;;;;;5039050;27;90022;-51
2022/12/09 01:06:51;;;;;;;70.97;52.72;;;12.90;60.00;;;;;;5027860;27;93947;-55
2022/12/09 01:09:17;;;;;;;69.68;52.13;;;12.90;60.00;;;;;;5045069;27;89166;-51
2022/12/09 01:11:43;;;;;;;71.03;53.85;;;12.90;59.90;;;;;;5032684;27;94029;-53
2022/12/09 01:14:11;;;;;;;74.13;53.13;;;12.90;59.90;;;;;;5043863;27;94973;-54
2022/12/09 01:16:36;;;;;;;71.43;53.55;;;12.90;59.80;;;;;;5043909;27;92331;-48
2022/12/09 01:19:07;;;;;;;70.85;52.95;;;12.90;59.90;;;;;;5035910;27;91768;-49
2022/12/09 01:21:33;;;;;;;73.45;53.42;;;12.80;59.80;;;;;;5031167;27;90004;-48
2022/12/09 01:23:59;;;;;;;71.20;53.45;;;12.80;59.70;;;;;;5033507;27;93484;-49
2022/12/09 01:26:25;;;;;;;71.47;53.97;;;12.80;59.70;;;;;;5048950;27;90134;-52
2022/12/09 01:28:51;;;;;;;70.38;52.65;;;12.80;59.70;;;;;;5037608;27;91089;-51
2022/12/09 01:31:22;;;;;;;72.20;53.70;;;12.80;59.70;;;;;;5035885;27;89942;-50
2022/12/09 01:33:48;;;;;;;70.57;53.67;;;12.80;59.70;;;;;;5041851;27;88761;-51
2022/12/09 01:36:17;;;;;;;70.70;52.97;;;12.80;59.70;;;;;;5049078;27;91058;-49
2022/12/09 01:38:43;;;;;;;71.45;53.80;;;12.80;59.60;;;;;;5024642;27;95829;-50
2022/12/09 01:41:09;;;;;;;71.53;53.10;;;12.80;59.70;;;;;;5033466;27;90823;-51
2022/12/09 01:43:35;;;;;;;70.25;52.70;;;12.80;59.50;;;;;;5047174;27;93111;-53
2022/12/09 01:46:01;;;;;;;69.00;52.67;;;12.80;59.60;;;;;;5047477;27;92766;-52
2022/12/09 01:48:31;;;;;;;70.85;52.97;;;12.80;59.50;;;;;;5029720;27;96207;-53
2022/12/09 01:50:59;;;;;;;69.68;52.50;;;12.80;59.60;;;;;;5036937;27;93400;-54
2022/12/09 01:53:29;;;;;;;68.53;52.47;;;12.70;59.60;;;;;;5048931;27;91175;-53
2022/12/09 01:56:00;;;;;;;69.05;52.40;;;12.80;59.50;;;;;;5016804;27;90825;-51
2022/12/09 01:58:27;;;;;;;70.17;52.53;;;12.80;59.60;;;;;;5043280;27;89949;-53
2022/12/09 02:00:52;;;;;;;68.90;52.67;;;12.70;59.60;;;;;;5041440;27;89768;-49
2022/12/09 02:03:18;;;;;;;69.53;52.15;;;12.70;59.50;;;;;;5032171;27;90903;-52
2022/12/09 02:05:44;;;;;;;68.10;52.45;;;12.70;59.40;;;;;;5037267;27;91960;-53
2022/12/09 02:08:15;;;;;;;69.93;52.90;;;12.80;59.50;;;;;;5038691;27;94089;-53
2022/12/09 02:11:22;;;;;;;70.60;53.08;;;12.80;59.50;;;;;;5032814;27;90152;-53
2022/12/09 02:14:17;;;;;;;71.00;53.65;;;12.70;59.50;;;;;;5041566;27;94709;-52
2022/12/09 02:17:08;;;;;;;71.30;53.25;;;12.70;59.40;;;;;;5034908;27;91491;-55
2022/12/09 02:20:00;;;;;;;70.78;53.17;;;12.70;59.40;;;;;;5037620;27;90046;-51
2022/12/09 02:22:46;;;;;;;68.28;52.72;;;12.70;59.40;;;;;;5033190;27;89982;-51
2022/12/09 02:25:34;;;;;;;70.88;53.10;;;12.70;60.00;;;;;;5024156;27;89991;-53
2022/12/09 02:28:03;;;;;;;68.57;52.35;;;12.70;59.40;;;;;;5033652;27;92435;-52
2022/12/09 02:30:35;;;;;;;67.65;52.50;;;12.70;59.50;;;;;;5035511;27;90784;-51
2022/12/09 02:33:04;;;;;;;69.43;53.15;;;12.70;59.30;;;;;;5045328;27;90876;-52
2022/12/09 02:35:49;;;;;;;68.10;52.60;;;12.70;59.30;;;;;;5042952;27;90499;-53
2022/12/09 02:38:26;;;;;;;69.28;52.40;;;12.60;59.30;;;;;;5039397;27;95301;-50
2022/12/09 02:41:10;;;;;;;70.45;52.97;;;12.60;59.30;;;;;;5028364;27;94932;-49
2022/12/09 02:43:43;;;;;;;69.18;52.35;;;12.60;59.40;;;;;;5034585;27;90172;-53
2022/12/09 02:46:10;;;;;;;69.45;52.70;;;12.60;59.30;;;;;;5032815;27;91762;-54
2022/12/09 02:48:39;;;;;;;69.47;52.72;;;12.60;59.30;;;;;;5043267;27;92359;-50
2022/12/09 02:51:13;;;;;;;70.13;52.97;;;12.60;59.30;;;;;;5043643;27;92443;-48
2022/12/09 02:53:40;;;;;;;69.35;53.20;;;12.60;59.30;;;;;;5030062;27;94981;-49
2022/12/09 02:56:07;;;;;;;69.85;52.22;;;12.60;59.30;;;;;;5025396;27;92211;-50
2022/12/09 02:58:33;;;;;;;70.68;53.53;;;12.60;59.30;;;;;;5023287;27;91894;-52
2022/12/09 03:00:59;;;;;;;68.57;52.83;;;12.60;59.40;;;;;;5039467;27;93990;-49
2022/12/09 03:03:27;;;;;;;68.15;52.60;;;12.60;59.30;;;;;;5025051;27;96793;-52
2022/12/09 03:06:13;;;;;;;68.95;52.65;;;12.50;59.30;;;;;;5038162;27;89724;-52
2022/12/09 03:08:53;;;;;;;68.75;52.55;;;12.60;59.30;;;;;;5033566;27;92039;-51
2022/12/09 03:11:22;;;;;;;69.53;52.88;;;12.60;59.30;;;;;;5030189;27;90267;-50
2022/12/09 03:14:12;;;;;;;68.88;52.85;;;12.50;59.30;;;;;;5031844;27;93230;-51
2022/12/09 03:16:41;;;;;;;69.18;52.83;;;12.60;59.40;;;;;;5041497;27;89513;-52
2022/12/09 03:19:09;;;;;;;68.40;52.65;;;12.50;59.90;;;;;;5032102;27;92277;-53
2022/12/09 03:21:39;;;;;;;68.68;52.63;;;12.50;59.50;;;;;;5029153;27;90696;-53
2022/12/09 03:24:09;;;;;;;69.97;53.38;;;12.60;59.40;;;;;;5017516;27;95757;-52
2022/12/09 03:26:37;;;;;;;67.90;52.22;;;12.50;59.30;;;;;;5041433;27;89757;-53
2022/12/09 03:29:07;;;;;;;68.47;51.85;;;12.50;59.40;;;;;;5023403;27;91108;-51
2022/12/09 03:31:35;;;;;;;69.82;52.80;;;12.50;59.40;;;;;;5031610;27;90207;-52
2022/12/09 03:34:03;;;;;;;69.07;53.03;;;12.50;59.40;;;;;;5034429;27;92707;-54
2022/12/09 03:36:38;;;;;;;68.78;53.15;;;12.50;59.50;;;;;;5029046;27;90179;-52
2022/12/09 03:39:12;;;;;;;69.40;52.50;;;12.50;59.50;;;;;;5046113;27;89604;-52
2022/12/09 03:41:46;;;;;;;69.95;53.20;;;12.50;59.30;;;;;;5037105;27;89328;-50
2022/12/09 03:44:18;;;;;;;71.75;53.38;;;12.50;59.40;;;;;;5025775;27;93104;-50
2022/12/09 03:46:44;;;;;;;68.65;52.30;;;12.50;59.30;;;;;;5042206;27;89934;-54
2022/12/09 03:49:11;;;;;;;67.93;52.22;;;12.50;59.40;;;;;;5025247;27;90769;-49
2022/12/09 03:51:58;;;;;;;69.57;53.25;;;12.50;59.30;;;;;;5033086;27;93591;-50
2022/12/09 03:54:45;;;;;;;69.63;53.03;;;12.40;59.40;;;;;;5033217;27;90410;-53
2022/12/09 03:57:14;;;;;;;68.68;52.75;;;12.40;59.40;;;;;;5030253;27;92950;-54
2022/12/09 03:59:41;;;;;;;69.78;53.35;;;12.40;59.30;;;;;;5027626;27;91071;-49
2022/12/09 04:02:07;;;;;;;69.22;52.50;;;12.40;59.40;;;;;;5035060;27;91201;-52
2022/12/09 04:04:33;;;;;;;68.75;52.33;;;12.40;59.30;;;;;;5050856;27;95905;-50
2022/12/09 04:06:59;;;;;;;69.22;53.15;;;12.40;59.50;;;;;;5029304;27;91001;-50
2022/12/09 04:09:25;;;;;;;69.63;52.85;;;12.30;60.10;;;;;;5032347;27;94405;-51
2022/12/09 04:11:51;;;;;;;69.75;53.10;;;12.40;59.90;;;;;;5031414;27;92584;-51
2022/12/09 04:14:17;;;;;;;68.15;52.42;;;12.40;59.30;;;;;;5042776;27;92686;-53
2022/12/09 04:16:43;;;;;;;67.40;51.92;;;12.40;59.40;;;;;;5019815;27;89600;-52
2022/12/09 04:19:09;;;;;;;68.75;52.78;;;12.40;59.50;;;;;;5041816;27;91090;-55
2022/12/09 04:21:35;;;;;;;67.97;52.30;;;12.40;59.30;;;;;;5043927;27;93130;-53
2022/12/09 04:24:00;;;;;;;68.00;52.67;;;12.30;59.50;;;;;;5039776;27;91585;-54
2022/12/09 04:26:26;;;;;;;67.47;52.50;;;12.30;59.30;;;;;;5038717;27;94800;-53
2022/12/09 04:28:52;;;;;;;71.00;52.97;;;12.40;59.40;;;;;;5041574;27;90135;-53
2022/12/09 04:31:18;;;;;;;68.85;52.70;;;12.40;59.40;;;;;;5042697;27;91751;-53
2022/12/09 04:33:44;;;;;;;67.55;51.97;;;12.40;59.30;;;;;;5042141;27;90042;-49
2022/12/09 04:36:13;;;;;;;68.55;52.53;;;12.40;59.40;;;;;;5038736;27;92636;-49
2022/12/09 04:38:39;;;;;;;68.65;52.97;;;12.30;59.30;;;;;;5036542;27;92335;-52
2022/12/09 04:41:07;;;;;;;67.15;52.17;;;12.30;59.40;;;;;;5047382;27;92779;-52
2022/12/09 04:43:32;;;;;;;69.13;53.15;;;12.30;59.40;;;;;;5033512;27;90032;-50
2022/12/09 04:46:03;;;;;;;67.38;52.17;;;12.30;59.30;;;;;;5031255;27;90380;-52
2022/12/09 04:48:29;;;;;;;69.55;52.65;;;12.30;59.40;;;;;;5035215;27;90125;-52
2022/12/09 04:50:56;;;;;;;69.03;52.67;;;12.30;59.40;;;;;;5042770;27;90141;-52
2022/12/09 04:53:22;;;;;;;67.53;52.60;;;12.30;59.30;;;;;;5037014;27;90086;-50
2022/12/09 04:55:47;;;;;;;68.55;52.20;;;12.40;59.20;;;;;;5039278;27;90708;-51
2022/12/09 04:58:13;;;;;;;70.47;52.53;;;12.30;59.20;;;;;;5029229;27;96705;-52
2022/12/09 05:00:38;;;;;;;68.05;52.20;;;12.30;59.30;;;;;;5039791;27;91091;-51
2022/12/09 05:03:04;;;;;;;68.68;52.33;;;12.30;59.30;;;;;;5045411;27;91268;-52
2022/12/09 05:05:30;;;;;;;67.90;52.20;;;12.30;59.40;;;;;;5035295;27;90412;-51
2022/12/09 05:07:55;;;;;;;68.97;52.63;;;12.30;59.30;;;;;;5041149;27;92150;-51
2022/12/09 05:10:21;;;;;;;68.65;52.72;;;12.30;59.10;;;;;;5026696;27;89700;-51
2022/12/09 05:12:47;;;;;;;71.88;52.80;;;12.30;59.20;;;;;;5035599;27;92805;-53
2022/12/09 05:15:12;;;;;;;74.50;52.15;;;12.30;59.10;;;;;;5030019;27;90756;-50
2022/12/09 05:17:38;;;;;;;68.93;52.38;;;12.30;59.10;;;;;;5023961;27;94382;-53
2022/12/09 05:20:04;;;;;;;67.18;52.28;;;12.30;59.10;;;;;;5037546;27;93752;-52
2022/12/09 05:22:30;;;;;;;68.13;52.65;;;12.30;59.10;;;;;;5028670;27;90508;-50
2022/12/09 05:24:56;;;;;;;69.30;52.53;;;12.30;59.20;;;;;;5028590;27;96114;-51
2022/12/09 05:27:21;;;;;;;69.45;52.08;;;12.30;59.10;;;;;;5033114;27;91517;-54
2022/12/09 05:29:47;;;;;;;68.10;52.58;;;12.30;59.10;;;;;;5042256;27;92148;-51
2022/12/09 05:32:12;;;;;;;68.60;52.03;;;12.30;59.10;;;;;;5027723;27;91722;-52
2022/12/09 05:34:38;;;;;;;68.63;52.53;;;12.30;59.00;;;;;;5035319;27;95638;-55
2022/12/09 05:37:04;;;;;;;69.75;52.80;;;12.30;59.00;;;;;;5029955;27;95734;-49
2022/12/09 05:39:30;;;;;;;68.50;52.20;;;12.30;59.00;;;;;;5040589;27;91813;-50
2022/12/09 05:41:55;;;;;;;67.32;51.97;;;12.20;59.10;;;;;;5037512;27;91199;-52
2022/12/09 05:44:21;;;;;;;68.88;52.55;;;12.20;59.20;;;;;;5032038;27;89325;-50
2022/12/09 05:46:47;;;;;;;67.32;52.28;;;12.20;59.20;;;;;;5028838;27;91422;-55
2022/12/09 05:49:12;;;;;;;70.22;53.15;;;12.20;59.10;;;;;;5013543;27;89777;-52
2022/12/09 05:51:38;;;;;;;67.80;52.30;;;12.20;59.20;;;;;;5043399;27;95058;-52
2022/12/09 05:54:04;;;;;;;68.05;52.08;;;12.20;59.00;;;;;;5038589;27;92962;-52
2022/12/09 05:56:31;;;;;;;67.30;51.88;;;12.20;59.10;;;;;;5044343;27;91632;-51
2022/12/09 05:58:58;;;;;;;68.25;52.67;;;12.20;59.10;;;;;;5047383;27;91405;-54
2022/12/09 06:01:24;;;;;;;69.30;52.65;;;12.20;59.00;;;;;;5035850;27;90003;-53
2022/12/09 06:03:51;;;;;;;68.38;51.72;;;12.20;59.10;;;;;;5043149;27;89919;-54
2022/12/09 06:06:20;;;;;;;68.60;52.55;;;12.20;59.10;;;;;;5042960;27;90129;-51
2022/12/09 06:08:46;;;;;;;68.22;51.85;;;12.20;59.10;;;;;;5049924;27;90394;-48
2022/12/09 06:11:14;;;;;;;69.15;53.10;;;12.20;59.00;;;;;;5037231;27;91582;-51
2022/12/09 06:13:40;;;;;;;70.93;52.70;;;12.20;59.10;;;;;;5032944;27;93761;-51
2022/12/09 06:16:06;;;;;;;69.05;52.80;;;12.10;59.10;;;;;;5037952;27;93145;-53
2022/12/09 06:18:32;;;;;;;69.93;52.58;;;12.10;59.30;;;;;;5048497;27;90934;-50
2022/12/09 06:20:58;;;;;;;72.43;52.53;;;12.10;59.50;;;;;;5018248;27;90484;-51
2022/12/09 06:23:24;;;;;;;73.57;53.28;;;12.10;59.70;;;;;;5031418;27;94068;-52
2022/12/09 06:25:49;;;;;;;75.38;54.38;;;12.10;59.90;;;;;;5037541;27;92733;-49
2022/12/09 06:28:15;;;;;;;69.40;52.10;;;12.10;60.10;;;;;;5044107;27;94889;-51
2022/12/09 06:30:41;;;;;;;73.00;53.87;;;12.10;60.70;;;;;;5036814;27;95419;-53
2022/12/09 06:33:06;;;;;;;76.32;53.50;;;12.10;60.20;;;;;;5036662;27;90586;-53
2022/12/09 06:35:32;;;;;;;72.85;52.20;;;12.00;60.90;;;;;;5044544;27;94705;-52
2022/12/09 06:37:58;;;;;;;75.70;54.25;;;12.00;61.30;;;;;;5033101;27;94259;-51
2022/12/09 06:40:24;;;;;;;74.00;52.92;;;12.00;61.30;;;;;;5011535;27;93908;-52
2022/12/09 06:42:50;;;;;;;72.25;53.33;;;12.00;61.40;;;;;;5042261;27;91270;-52
2022/12/09 06:45:17;;;;;;;74.63;53.90;;;11.90;61.40;;;;;;5033448;27;90229;-51
2022/12/09 06:47:42;;;;;;;75.07;53.78;;;11.80;61.80;;;;;;5046533;27;93096;-50
2022/12/09 06:50:08;;;;;;;79.13;53.45;;;11.80;61.60;;;;;;5034297;27;91558;-52
2022/12/09 06:52:36;;;;;;;78.13;54.42;;;11.80;61.70;;;;;;5029709;27;93591;-55
2022/12/09 06:55:05;;;;;;;75.60;53.83;;;11.80;61.60;;;;;;5034068;27;91389;-53
2022/12/09 06:57:31;;;;;;;77.53;54.58;;;11.80;61.90;;;;;;5028208;27;95213;-56
2022/12/09 06:59:57;;;;;;;76.32;53.83;;;11.80;61.90;;;;;;5032981;27;90176;-59
2022/12/09 07:02:22;;;;;;;79.28;54.17;;;11.90;62.10;;;;;;5043209;27;95618;-59
2022/12/09 07:04:54;;;;;;;74.35;53.60;;;11.90;62.20;;;;;;5043994;27;97319;-59
2022/12/09 07:07:20;;;;;;;76.60;54.80;;;12.00;62.50;;;;;;5043395;27;94789;-60
2022/12/09 07:09:47;;;;;;;89.00;61.42;;;12.00;62.50;;;;;;5025601;27;91080;-59
2022/12/09 07:12:12;;;;;;;85.30;59.88;;;12.00;62.50;;;;;;5034347;27;94460;-59
2022/12/09 07:14:38;;;;;;;84.30;57.70;;;12.10;62.20;;;;;;5050043;27;90627;-57
2022/12/09 07:17:04;;;;;;;81.93;57.17;;;12.00;62.70;;;;;;5013883;27;91620;-59
2022/12/09 07:19:30;;;;;;;82.05;56.30;;;12.10;62.70;;;;;;5020775;27;91550;-58
2022/12/09 07:21:56;;;;;;;80.13;56.65;;;12.10;62.50;;;;;;5047232;27;89403;-59
2022/12/09 07:24:22;;;;;;;80.25;55.95;;;12.10;62.50;;;;;;5041307;27;90311;-58
2022/12/09 07:26:48;;;;;;;81.13;56.80;;;12.10;62.40;;;;;;5025510;27;94162;-60
2022/12/09 07:29:14;;;;;;;81.63;56.42;;;12.20;62.40;;;;;;5031724;27;92510;-59
2022/12/09 07:31:40;;;;;;;84.03;57.95;;;12.20;62.60;;;;;;5042809;27;90777;-59
2022/12/09 07:34:06;;;;;;;85.10;58.88;;;12.30;62.50;;;;;;5038124;27;93392;-59
2022/12/09 07:36:33;;;;;;;94.28;60.22;;;12.30;62.00;;;;;;5029906;27;91703;-59
2022/12/09 07:39:04;;;;;;;89.72;59.67;;;12.50;61.70;;;;;;5032971;27;90643;-59
2022/12/09 07:41:30;;;;;;;93.50;61.20;;;12.70;61.00;;;;;;5037403;27;90348;-56
2022/12/09 07:43:56;;;;;;;97.18;61.17;;;12.80;60.80;;;;;;5040741;27;90986;-58
2022/12/09 07:46:24;;;;;;;101.38;61.35;;;12.90;60.50;;;;;;5031658;27;89951;-59
2022/12/09 07:48:50;;;;;;;96.55;61.90;;;12.90;60.10;;;;;;5036112;27;94795;-60
2022/12/09 07:51:16;;;;;;;96.70;63.03;;;12.90;60.40;;;;;;5044166;27;90397;-58
2022/12/09 07:53:41;;;;;;;97.72;61.22;;;12.90;60.20;;;;;;5029940;27;92071;-52
2022/12/09 07:56:13;;;;;;;103.80;62.13;;;12.90;60.30;;;;;;5037557;27;93748;-59
2022/12/09 07:58:39;;;;;;;105.10;64.70;;;12.90;60.40;;;;;;5021866;27;97279;-59
2022/12/09 08:01:17;;;;;;;95.13;61.92;;;12.90;60.30;;;;;;5033231;27;91509;-60
2022/12/09 08:03:43;;;;;;;96.35;61.10;;;12.90;60.10;;;;;;5044604;27;90105;-60
2022/12/09 08:06:14;;;;;;;97.85;62.15;;;12.90;60.20;;;;;;5037274;27;89895;-57
2022/12/09 08:08:40;;;;;;;97.25;62.47;;;13.00;60.10;;;;;;5035216;27;90589;-58
2022/12/09 08:11:15;;;;;;;95.93;61.90;;;13.00;60.10;;;;;;5033600;27;93996;-59
2022/12/09 08:13:41;;;;;;;90.05;59.95;;;13.00;59.90;;;;;;5036539;27;91518;-59
2022/12/09 08:16:09;;;;;;;99.18;62.10;;;13.00;59.90;;;;;;5037982;27;91140;-59
2022/12/09 08:18:35;;;;;;;92.07;60.65;;;13.00;60.00;;;;;;5029249;27;92681;-53
2022/12/09 08:21:06;;;;;;;92.55;60.03;;;13.00;59.80;;;;;;5038021;27;90660;-58
2022/12/09 08:23:32;;;;;;;93.50;60.25;;;13.00;59.40;;;;;;5040259;27;90570;-56
2022/12/09 08:25:57;;;;;;;95.85;59.17;;;13.10;59.60;;;;;;5032523;27;92491;-59
2022/12/09 08:28:23;;;;;;;96.55;60.67;;;13.10;59.50;;;;;;5041264;27;90670;-58
2022/12/09 08:30:49;;;;;;;95.88;60.88;;;13.10;59.40;;;;;;5030720;27;90200;-58
2022/12/09 08:33:15;;;;;;;90.75;58.78;;;13.10;59.40;;;;;;5018662;27;92396;-59
2022/12/09 08:35:41;;;;;;;98.55;59.20;;;13.10;59.20;;;;;;5037606;27;90813;-59
2022/12/09 08:38:07;;;;;;;98.20;59.75;;;13.10;59.20;;;;;;5027229;27;92068;-58
2022/12/09 08:40:33;;;;;;;93.45;58.38;;;13.00;59.20;;;;;;5041965;27;93063;-59
2022/12/09 08:42:59;;;;;;;97.28;58.88;;;13.10;59.50;;;;;;5029598;27;91682;-58
2022/12/09 08:45:25;;;;;;;96.63;58.80;;;13.20;59.30;;;;;;5026966;27;94077;-58
2022/12/09 08:47:50;;;;;;;95.70;58.45;;;13.30;59.40;;;;;;5047580;27;89892;-57
2022/12/09 08:50:16;;;;;;;93.13;58.75;;;13.30;59.30;;;;;;5041405;27;92342;-58
2022/12/09 08:52:42;;;;;;;96.45;58.33;;;13.30;59.20;;;;;;5035762;27;91846;-59
2022/12/09 08:55:08;;;;;;;92.55;56.95;;;13.30;59.30;;;;;;5031063;27;90818;-60
2022/12/09 08:57:34;;;;;;;87.25;57.28;;;13.30;59.40;;;;;;5027962;27;90661;-58
2022/12/09 09:00:00;;;;;;;91.88;58.08;;;13.30;59.40;;;;;;5044857;27;89604;-56
2022/12/09 09:02:26;;;;;;;90.97;59.13;;;13.30;59.90;;;;;;5033997;27;91099;-55
2022/12/09 09:04:52;;;;;;;82.03;57.50;;;13.30;59.80;;;;;;5026400;27;98514;-59
2022/12/09 09:07:17;;;;;;;87.38;57.88;;;13.30;59.90;;;;;;5035845;27;91367;-59
2022/12/09 09:09:43;;;;;;;84.07;57.45;;;13.40;59.70;;;;;;5031302;27;94442;-57
2022/12/09 09:12:09;;;;;;;85.43;57.30;;;13.40;59.30;;;;;;5026611;27;91307;-54
2022/12/09 09:14:34;;;;;;;80.60;56.67;;;13.40;59.40;;;;;;5044513;27;90588;-57
2022/12/09 09:17:00;;;;;;;86.00;56.40;;;13.40;58.70;;;;;;5049811;27;90572;-56
2022/12/09 09:19:26;;;;;;;87.47;57.45;;;13.40;58.70;;;;;;5031189;27;90011;-58
2022/12/09 09:21:52;;;;;;;81.10;57.15;;;13.50;58.70;;;;;;5032666;27;90119;-55
2022/12/09 09:24:21;;;;;;;82.72;56.70;;;13.50;58.90;;;;;;5040344;27;93028;-57
2022/12/09 09:26:50;;;;;;;85.32;56.63;;;13.50;58.90;;;;;;5040443;27;90765;-56
2022/12/09 09:29:17;;;;;;;82.10;56.53;;;13.40;58.70;;;;;;5027099;27;94089;-57
2022/12/09 09:31:47;;;;;;;84.00;56.50;;;13.40;58.90;;;;;;5028901;27;91498;-57
2022/12/09 09:34:15;;;;;;;83.50;56.50;;;13.50;58.90;;;;;;5039616;27;92724;-57
2022/12/09 09:36:42;;;;;;;83.38;56.20;;;13.50;59.20;;;;;;5038754;27;90351;-55
2022/12/09 09:39:08;;;;;;;82.93;56.58;;;13.60;59.20;;;;;;5036617;27;92916;-56
2022/12/09 09:41:54;;;;;;;81.13;55.95;;;13.70;59.10;;;;;;5041656;27;90341;-55
2022/12/09 09:44:42;;;;;;;83.57;57.45;;;13.70;58.80;;;;;;5034140;27;90762;-56
2022/12/09 09:47:18;;;;;;;83.68;56.35;;;13.70;59.20;;;;;;5039153;27;93588;-56
2022/12/09 09:49:55;;;;;;;84.25;56.60;;;13.70;59.30;;;;;;5034444;27;89860;-56
2022/12/09 09:52:24;;;;;;;84.55;57.00;;;13.80;59.10;;;;;;5052374;27;91176;-54
2022/12/09 09:54:51;;;;;;;80.68;56.20;;;13.70;59.00;;;;;;5041631;27;90556;-54
2022/12/09 09:57:19;;;;;;;83.50;56.30;;;13.70;59.20;;;;;;5036157;27;91904;-56
2022/12/09 10:00:22;;;;;;;81.72;56.28;;;13.70;59.80;;;;;;5036135;27;90227;-55
2022/12/09 10:03:03;;;;;;;84.03;56.40;;;13.70;59.80;;;;;;5038577;27;89928;-55
2022/12/09 10:05:34;;;;;;;84.70;56.70;;;13.70;59.50;;;;;;5043982;27;90132;-55
2022/12/09 10:08:20;;;;;;;79.78;56.17;;;13.80;59.60;;;;;;5046039;27;90368;-54
2022/12/09 10:11:06;;;;;;;85.10;57.50;;;13.80;59.40;;;;;;5043248;27;91262;-48
2022/12/09 10:13:50;;;;;;;81.47;58.10;;;13.90;59.40;;;;;;5045153;27;90767;-55
2022/12/09 10:16:27;;;;;;;85.85;57.05;;;14.00;59.40;;;;;;5033807;27;89968;-52
2022/12/09 10:19:06;;;;;;;85.35;56.80;;;14.30;58.60;;;;;;5042545;27;92537;-52
2022/12/09 10:21:34;;;;;;;81.90;56.55;;;14.50;58.10;;;;;;5045213;27;92770;-54
2022/12/09 10:24:33;;;;;;;82.13;56.70;;;14.50;57.70;;;;;;5028321;27;90932;-53
2022/12/09 10:27:17;;;;;;;85.85;57.13;;;14.60;58.10;;;;;;4988568;27;92437;-60
2022/12/09 10:30:03;;;;;;;86.97;57.90;;;14.60;57.60;;;;;;5034659;27;91008;-62
2022/12/09 10:32:32;;;;;;;84.28;56.65;;;14.70;58.00;;;;;;5035466;27;96349;-61
2022/12/09 10:34:58;;;;;;;88.53;56.67;;;14.80;57.90;;;;;;5036651;27;90193;-57
2022/12/09 10:37:31;;;;;;;84.82;57.03;;;14.90;57.70;;;;;;5044690;27;93582;-58
2022/12/09 10:40:20;;;;;;;84.13;56.20;;;14.90;57.70;;;;;;5030601;27;90776;-56
2022/12/09 10:45:56;;;;;;;83.68;56.78;;;14.90;57.40;;;;;;5038376;27;90050;-54
2022/12/09 10:48:43;;;;;;;84.45;57.15;;;14.90;58.20;;;;;;5038266;27;91999;-57
2022/12/09 10:51:21;;;;;;;84.63;57.05;;;14.70;58.30;;;;;;5038579;27;91814;-55
2022/12/09 10:53:55;;;;;;;88.13;55.58;;;14.30;59.20;;;;;;5043298;27;89980;-56
2022/12/09 10:56:32;;;;;;;84.97;55.63;;;14.00;60.30;;;;;;5035682;27;92331;-55
2022/12/09 10:59:23;;;;;;;83.25;55.53;;;13.90;61.00;;;;;;5033642;27;90453;-56
2022/12/09 11:02:01;;;;;;;87.23;56.57;;;13.80;60.60;;;;;;5035092;27;92340;-56
2022/12/09 11:04:33;;;;;;;78.25;56.17;;;13.60;60.50;;;;;;5047882;27;91752;-56
2022/12/09 11:07:13;;;;;;;83.82;56.00;;;13.60;60.70;;;;;;5044488;27;92173;-56
2022/12/09 11:09:41;;;;;;;81.97;55.60;;;13.60;60.70;;;;;;5042120;27;90203;-56
2022/12/09 11:12:27;;;;;;;80.72;55.45;;;13.50;60.80;;;;;;5049721;27;91405;-56
2022/12/09 11:14:54;;;;;;;78.53;55.45;;;13.50;60.90;;;;;;5044013;27;91520;-55
2022/12/09 11:17:35;;;;;;;80.95;55.75;;;13.40;60.90;;;;;;5042247;27;97171;-57
2022/12/09 11:20:04;;;;;;;77.80;55.67;;;13.30;60.80;;;;;;5038299;27;91203;-56
2022/12/09 11:22:39;;;;;;;79.15;55.90;;;13.30;60.90;;;;;;5041744;27;91111;-57
2022/12/09 11:25:14;;;;;;;76.30;55.15;;;13.30;61.00;;;;;;5042831;27;95106;-57
2022/12/09 11:27:56;;;;;;;79.40;55.38;;;13.30;61.50;;;;;;5028948;27;96043;-56
2022/12/09 11:30:48;;;;;;;78.05;55.42;;;13.30;61.20;;;;;;5036227;27;90495;-55
2022/12/09 11:33:13;;;;;;;77.53;55.20;;;13.20;61.20;;;;;;5022522;27;90188;-58
2022/12/09 11:35:42;;;;;;;79.07;56.15;;;13.20;61.30;;;;;;5049001;27;91858;-55
2022/12/09 11:38:28;;;;;;;82.28;56.05;;;13.20;61.40;;;;;;5047399;27;91316;-56
2022/12/09 11:44:29;;;;;;;76.03;56.33;;;13.10;61.00;;;;;;5030214;27;91529;-58
2022/12/09 11:47:26;;;;;;;76.43;55.38;;;13.10;60.90;;;;;;5032876;27;90335;-56
2022/12/09 11:50:30;;;;;;;76.20;56.05;;;13.10;60.90;;;;;;5032064;27;92103;-56
2022/12/09 11:53:10;;;;;;;77.38;55.35;;;13.10;60.90;;;;;;5020037;27;90283;-54
2022/12/09 11:55:48;;;;;;;79.68;56.38;;;13.10;60.90;;;;;;5045708;27;90060;-55
2022/12/09 11:58:26;;;;;;;79.65;55.60;;;13.10;60.80;;;;;;5033359;27;92272;-53
2022/12/09 12:01:02;;;;;;;79.10;55.63;;;13.10;60.80;;;;;;5029843;27;95520;-54
2022/12/09 12:03:46;;;;;;;78.15;55.33;;;13.10;61.10;;;;;;5042808;27;90097;-54
2022/12/09 12:06:21;;;;;;;82.32;56.83;;;13.10;60.90;;;;;;5043052;27;90461;-56
2022/12/09 12:08:58;;;;;;;79.43;55.88;;;13.10;60.80;;;;;;5040328;27;91103;-52
2022/12/09 12:11:33;;;;;;;85.80;56.97;;;13.20;61.80;;;;;;5034548;27;91432;-56
2022/12/09 12:14:08;;;;;;;83.25;57.10;;;13.60;62.20;;;;;;5034372;27;92740;-56
2022/12/09 12:16:47;;;;;;;86.30;56.67;;;14.10;60.70;;;;;;5041312;27;95818;-58
2022/12/09 12:19:32;;;;;;;87.07;57.95;;;14.50;59.50;;;;;;5033369;27;95201;-57
2022/12/09 12:22:16;;;;;;;82.25;56.70;;;14.40;59.50;;;;;;5040382;27;90876;-57
2022/12/09 12:25:05;;;;;;;85.85;57.40;;;14.40;60.40;;;;;;5018045;27;91768;-59
2022/12/09 12:27:39;;;;;;;90.75;58.75;;;14.60;60.10;;;;;;5023878;27;90275;-58
2022/12/09 12:30:10;;;;;;;95.50;57.28;;;14.80;59.80;;;;;;5038373;27;94744;-56
2022/12/09 12:33:06;;;;;;;89.97;59.50;;;14.80;59.60;;;;;;5044892;27;90367;-60
2022/12/09 12:35:49;;;;;;;98.50;60.90;;;14.90;59.30;;;;;;5031278;27;92830;-59
2022/12/09 12:38:32;;;;;;;94.45;60.47;;;15.00;59.20;;;;;;5034847;27;90975;-59
2022/12/09 12:41:15;;;;;;;104.88;62.22;;;15.10;59.90;;;;;;5042019;27;91082;-62
2022/12/09 12:47:03;;;;;;;100.00;62.70;;;15.40;59.80;;;;;;4996489;27;92165;-58
2022/12/09 12:49:54;;;;;;;95.93;61.97;;;15.40;60.50;;;;;;5023249;27;96290;-59
2022/12/09 12:52:37;;;;;;;98.97;61.72;;;15.60;61.60;;;;;;5042171;27;93886;-60